Time;durP1;ratioP1;P1;durP2;ratioP2;P2;SDS_P1;SDS_P2;PMS_P1;PMS_P2;Temp;Humidity;BMP_temperature;BMP_pressure;BME280_temperature;BME280_humidity;BME280_pressure;Samples;Min_cycle;Max_cycle;Signal;HPM_P1;HPM_P2
2021/08/08 10:51:52;;;;;;;9.05;2.60;;;19.60;80.30;;;;;;5852187;24;20010;-93
2021/08/08 10:55:03;;;;;;;8.20;2.85;;;19.60;79.50;;;;;;5925504;23;20052;-89
2021/08/08 10:57:30;;;;;;;5.97;2.35;;;19.60;79.40;;;;;;6102179;23;20004;-89
2021/08/08 11:00:08;;;;;;;;;;;;;;;;;;;;;
2021/08/08 11:02:35;;;;;;;7.07;2.47;;;19.50;79.00;;;;;;6194469;23;20076;-89
2021/08/08 11:05:13;;;;;;;6.43;2.40;;;19.60;79.60;;;;;;6217702;23;20020;-87
2021/08/08 11:07:43;;;;;;;10.10;3.25;;;19.60;79.50;;;;;;6219081;23;20023;-88
2021/08/08 11:10:24;;;;;;;7.47;2.63;;;19.70;79.10;;;;;;6194685;23;20003;-89
2021/08/08 11:13:29;;;;;;;;;;;;;;;;;;;;;
2021/08/08 11:16:00;;;;;;;7.47;2.42;;;19.80;79.50;;;;;;6227105;22;20091;-89
2021/08/08 11:18:34;;;;;;;7.75;2.60;;;19.80;79.30;;;;;;6198960;23;20019;-89
2021/08/08 11:21:14;;;;;;;6.57;2.58;;;19.80;79.60;;;;;;6223613;23;20040;-89
2021/08/08 11:23:52;;;;;;;;;;;;;;;;;;;;;
2021/08/08 11:26:28;;;;;;;8.35;3.47;;;19.90;79.30;;;;;;6248844;23;20087;-88
2021/08/08 11:29:00;;;;;;;5.82;2.40;;;20.00;78.90;;;;;;6222504;23;20058;-91
2021/08/08 11:31:44;;;;;;;7.80;3.20;;;20.00;78.30;;;;;;6223536;23;20363;-88
2021/08/08 11:34:15;;;;;;;6.38;2.60;;;20.00;78.20;;;;;;6222426;23;20083;-89
2021/08/08 11:36:46;;;;;;;9.02;2.67;;;20.10;78.10;;;;;;6223058;23;20008;-89
2021/08/08 11:39:19;;;;;;;8.38;2.25;;;20.10;77.30;;;;;;6221892;23;20453;-89
2021/08/08 11:41:47;;;;;;;6.18;2.20;;;20.10;77.80;;;;;;6222224;23;20008;-87
2021/08/08 11:44:18;;;;;;;6.53;2.10;;;20.10;78.40;;;;;;6221138;23;20007;-89
2021/08/08 11:46:52;;;;;;;;;;;20.20;78.30;;;;;;6197796;23;20007;-89
2021/08/08 11:49:29;;;;;;;4.40;1.85;;;20.20;78.30;;;;;;6220822;23;19950;-89
2021/08/08 11:52:09;;;;;;;6.55;2.30;;;20.20;78.20;;;;;;6197434;23;20034;-88
2021/08/08 11:54:35;;;;;;;6.30;2.65;;;20.30;78.30;;;;;;6221259;23;20015;-90
2021/08/08 11:57:04;;;;;;;6.13;2.00;;;20.40;78.30;;;;;;6221967;23;20008;-90
2021/08/08 11:59:35;;;;;;;5.97;2.00;;;20.50;77.40;;;;;;6221251;23;20000;-89
2021/08/08 12:02:24;;;;;;;4.20;1.67;;;20.50;77.10;;;;;;6221187;23;20000;-90
2021/08/08 12:04:52;;;;;;;5.05;1.77;;;20.50;77.70;;;;;;6221322;23;20032;-90
2021/08/08 12:07:25;;;;;;;6.63;2.03;;;20.60;76.60;;;;;;6221061;23;20066;-89
2021/08/08 12:10:03;;;;;;;5.03;2.10;;;20.60;76.30;;;;;;6219072;23;20000;-88
2021/08/08 12:12:44;;;;;;;5.43;1.95;;;20.70;76.20;;;;;;6247941;23;20071;-89
2021/08/08 12:15:13;;;;;;;4.32;1.73;;;20.60;76.00;;;;;;6221176;23;20000;-90
2021/08/08 12:17:43;;;;;;;6.50;1.77;;;20.70;76.00;;;;;;6194434;23;20027;-88
2021/08/08 12:20:24;;;;;;;;;;;;;;;;;;;;;
2021/08/08 12:23:01;;;;;;;;;;;20.70;75.30;;;;;;6247633;23;20071;-88
2021/08/08 12:25:36;;;;;;;7.07;2.15;;;20.60;75.40;;;;;;6219472;23;19900;-88
2021/08/08 12:28:07;;;;;;;8.15;2.45;;;20.60;75.50;;;;;;6246813;23;20055;-89
2021/08/08 12:30:44;;;;;;;7.18;2.20;;;20.50;76.00;;;;;;6220320;23;20449;-89
2021/08/08 12:33:17;;;;;;;4.53;1.77;;;20.40;76.50;;;;;;6196338;23;20011;-87
2021/08/08 12:35:52;;;;;;;6.40;2.40;;;20.30;77.60;;;;;;6220744;23;20014;-88
2021/08/08 12:38:20;;;;;;;6.25;2.45;;;20.20;78.90;;;;;;6222155;23;20011;-89
2021/08/08 12:40:54;;;;;;;6.90;2.83;;;20.20;80.00;;;;;;6220127;23;20054;-87
2021/08/08 12:43:23;;;;;;;4.75;2.40;;;20.00;80.60;;;;;;6221350;23;20058;-89
2021/08/08 12:45:53;;;;;;;4.07;1.85;;;20.00;81.20;;;;;;6247224;23;20004;-88
2021/08/08 12:48:39;;;;;;;3.58;1.73;;;20.00;81.60;;;;;;6218778;23;20000;-91
2021/08/08 12:51:30;;;;;;;3.47;1.65;;;20.10;82.10;;;;;;6197743;23;20553;-87
2021/08/08 12:53:59;;;;;;;3.80;1.40;;;20.10;82.30;;;;;;6247701;23;20001;-88
2021/08/08 12:56:43;;;;;;;5.25;1.70;;;20.10;82.20;;;;;;6214843;23;20047;-88
2021/08/08 12:59:13;;;;;;;3.28;1.60;;;20.20;82.10;;;;;;6218281;23;20004;-88
2021/08/08 13:01:48;;;;;;;4.90;1.88;;;20.20;82.30;;;;;;6193450;23;20001;-89
2021/08/08 13:04:23;;;;;;;5.63;1.85;;;20.20;81.50;;;;;;6191432;23;20000;-88
2021/08/08 13:07:02;;;;;;;4.20;2.03;;;20.20;81.10;;;;;;6193294;23;20094;-89
2021/08/08 13:09:28;;;;;;;4.60;2.22;;;20.30;81.50;;;;;;6190866;23;20045;-90
2021/08/08 13:12:31;;;;;;;5.45;2.10;;;20.30;81.70;;;;;;6210725;23;20039;-88
2021/08/08 13:15:29;;;;;;;6.65;2.03;;;20.30;81.20;;;;;;6215047;23;20096;-89
2021/08/08 13:18:20;;;;;;;5.13;2.15;;;20.30;81.30;;;;;;6167505;23;20017;-88
2021/08/08 13:20:49;;;;;;;4.88;2.05;;;20.40;81.00;;;;;;6194410;23;20017;-89
2021/08/08 13:23:27;;;;;;;8.23;4.05;;;20.40;81.10;;;;;;6215830;23;20004;-88
2021/08/08 13:26:05;;;;;;;4.20;2.33;;;20.40;81.50;;;;;;6169261;23;20061;-89
2021/08/08 13:28:56;;;;;;;5.60;2.20;;;20.50;81.70;;;;;;6192927;23;20008;-89
2021/08/08 13:31:38;;;;;;;5.53;2.30;;;20.50;81.90;;;;;;6167022;23;20005;-89
2021/08/08 13:34:11;;;;;;;6.65;2.10;;;20.60;81.70;;;;;;6169153;23;20075;-89
2021/08/08 13:36:41;;;;;;;4.38;1.80;;;20.60;81.20;;;;;;6192265;23;20070;-88
2021/08/08 13:39:26;;;;;;;4.60;2.00;;;20.70;80.90;;;;;;6193176;23;20012;-89
2021/08/08 13:42:00;;;;;;;3.78;1.83;;;20.70;80.60;;;;;;6194236;23;20019;-88
2021/08/08 13:44:48;;;;;;;3.33;1.40;;;20.70;80.10;;;;;;6194287;23;20338;-92
2021/08/08 13:47:34;;;;;;;;;;;;;;;;;;;;;
2021/08/08 13:50:22;;;;;;;6.07;1.88;;;20.80;77.00;;;;;;6194850;23;20080;-90
2021/08/08 13:53:07;;;;;;;;;;;;;;;;;;;;;
2021/08/08 13:55:38;;;;;;;3.17;1.48;;;20.90;78.10;;;;;;6225625;23;20106;-89
2021/08/08 13:58:33;;;;;;;7.05;1.80;;;20.90;77.50;;;;;;6192751;23;20430;-89
2021/08/08 14:01:15;;;;;;;;;;;;;;;;;;;;;
2021/08/08 14:03:49;;;;;;;5.82;1.80;;;20.90;76.80;;;;;;6218630;23;20087;-88
2021/08/08 14:06:25;;;;;;;4.20;1.60;;;20.80;76.20;;;;;;6243393;23;20015;-90
2021/08/08 15:30:41;;;;;;;4.60;1.52;;;20.20;71.80;;;;;;5048129;28;20136;-86
2021/08/08 15:33:11;;;;;;;3.72;1.52;;;20.20;71.80;;;;;;5058322;28;20033;-86
2021/08/08 15:35:37;;;;;;;4.88;1.58;;;20.20;71.90;;;;;;5042169;28;20037;-84
2021/08/08 15:38:03;;;;;;;4.32;1.38;;;20.20;72.20;;;;;;5059058;28;20023;-86
2021/08/08 15:40:34;;;;;;;3.10;1.33;;;20.30;71.80;;;;;;5052543;28;20164;-85
2021/08/08 15:43:00;;;;;;;3.28;1.65;;;20.20;71.50;;;;;;5052742;28;20021;-86
2021/08/08 15:45:26;;;;;;;6.93;1.40;;;20.20;71.20;;;;;;5059055;28;20374;-85
2021/08/08 15:47:52;;;;;;;3.20;1.45;;;20.30;71.50;;;;;;5051214;28;20469;-84
2021/08/08 15:50:17;;;;;;;2.60;1.30;;;20.30;71.70;;;;;;5047111;28;20112;-85
2021/08/08 15:52:43;;;;;;;2.15;1.30;;;20.30;71.30;;;;;;5071464;28;20084;-84
2021/08/08 15:55:51;;;;;;;;;;;;;;;;;;;;;
2021/08/08 15:58:23;;;;;;;3.78;1.60;;;20.40;70.90;;;;;;5053387;28;20481;-85
2021/08/08 16:00:51;;;;;;;2.88;1.50;;;20.40;71.40;;;;;;5050727;28;20025;-84
2021/08/08 16:03:19;;;;;;;2.22;1.25;;;20.40;71.80;;;;;;5060416;28;20057;-85
2021/08/08 16:05:45;;;;;;;3.65;1.40;;;20.40;72.00;;;;;;5055352;28;20029;-83
2021/08/08 16:08:13;;;;;;;2.78;1.33;;;20.40;70.90;;;;;;5054350;28;20029;-85
2021/08/08 16:10:39;;;;;;;5.68;1.23;;;20.40;70.90;;;;;;5045527;28;20033;-84
2021/08/08 16:13:05;;;;;;;4.43;1.45;;;20.40;70.70;;;;;;5061373;28;20021;-85
2021/08/08 16:15:31;;;;;;;2.63;1.20;;;20.50;70.90;;;;;;5053343;28;20111;-85
2021/08/08 16:17:57;;;;;;;2.72;1.30;;;20.50;70.80;;;;;;5053077;28;20021;-85
2021/08/08 16:20:25;;;;;;;5.13;1.45;;;20.50;70.30;;;;;;5055413;28;20060;-83
2021/08/08 16:22:50;;;;;;;3.70;1.33;;;20.50;70.30;;;;;;5050278;28;20044;-84
2021/08/08 16:25:16;;;;;;;3.13;1.25;;;20.60;70.60;;;;;;5048662;28;20068;-82
2021/08/08 16:27:42;;;;;;;3.65;1.58;;;20.50;70.70;;;;;;5053848;28;20017;-82
2021/08/08 16:30:14;;;;;;;2.50;1.20;;;20.50;70.50;;;;;;5035331;28;20515;-82
2021/08/08 16:32:40;;;;;;;3.78;1.38;;;20.60;70.50;;;;;;5035508;28;20025;-82
2021/08/08 16:35:06;;;;;;;5.65;1.50;;;20.50;70.10;;;;;;5034392;28;20404;-82
2021/08/08 16:37:32;;;;;;;2.25;1.15;;;20.50;70.40;;;;;;5029588;28;20056;-84
2021/08/08 16:40:00;;;;;;;2.13;1.20;;;20.50;70.60;;;;;;5013402;28;20030;-82
2021/08/08 16:42:26;;;;;;;2.45;1.30;;;20.40;70.90;;;;;;5024237;28;20034;-84
2021/08/08 16:45:17;;;;;;;2.67;1.20;;;20.40;71.00;;;;;;5020039;28;20025;-83
2021/08/08 16:47:43;;;;;;;1.50;1.08;;;20.30;70.80;;;;;;5019509;28;20034;-83
2021/08/08 16:50:17;;;;;;;2.63;1.20;;;20.20;70.40;;;;;;5016334;28;20335;-84
2021/08/08 16:52:51;;;;;;;5.20;1.65;;;20.20;70.60;;;;;;5017779;28;20030;-84
2021/08/08 16:55:27;;;;;;;3.47;1.45;;;20.20;71.50;;;;;;5025923;28;20119;-84
2021/08/08 16:57:56;;;;;;;2.45;1.30;;;20.10;70.70;;;;;;5015035;28;20488;-83
2021/08/08 17:00:22;;;;;;;2.42;1.50;;;20.00;71.20;;;;;;5005765;28;20181;-84
2021/08/08 17:02:48;;;;;;;3.97;1.42;;;20.00;71.80;;;;;;5021230;28;20488;-82
2021/08/08 17:06:31;;;;;;;;;;;;;;;;;;;;;
